Etusivu
METAR-TAF:

METAR-TAF

Lentoasemat :

Gafsa, Tunisia

Leveyspiiri: 34-25N, Pituuspiiri: 008-49E, korkeus merenpinnasta: 313 m

Tämänhetkinen sää

Tämä raportti tehtiin 27 minuuttia sitten, kello 13.00 UTC
Tuuli 12 kn lännestä/lounaasta, vaihdellen etelän/lounaan ja lännen välillä
Lämpötila 36°C
Kosteus 21%
Ilmanpaine 1015 hPa
Näkyvyys: 8000 m

METAR: DTTF 151300Z 24012KT 200V280 8000 NSC 36/10 Q1015 RMK SIROCCO NOSIG

Aika: 14:27 (13:27 UTC)

Sääennuste

Tämä raportti tehtiin 1 tunti ja 27 minuuttia sitten, kello 12.00 UTC
Ennuste voimassa 15. päivästä klo 13 UTC - 15. päivään klo 22 UTC
Tuuli 11 kn lännestä/lounaasta
Näkyvyys 10 km tai enemmän
ei pilviä alle 1500 m:ssä eikä cumulonimbus-pilviä

TAF: DTTF 151200Z 1513/1522 24011KT CAVOK

Säähavainnot ja -ennusteet yli 4000 lentoasemalta (METAR- ja TAF-raportit).

Käytössä olevat sääasemat on merkitty karttaan keltaisilla ja punaisilla pisteillä.

Aseta hiiri pisteen päälle nähdäksesi sääaseman nimen.

Klikkaa sitten nähdäksesi säähavainnot ja -ennusteet.

Kartan vaihtaminen: klikkaa mustalla rastilla varustettuja vihreitä pisteitä, niin voit zoomata sisään; viivalla varustettua vihreää pistettä, niin voit zoomata ulos tai vihreitä nuolia, niin pääset viereisille kartoille.


METAR-TAF: